Terminal Aerodrome Forecast
Issued by NWS Boston, MA

Home | Current Version | Previous Version | Text Only | Print | Product List | Glossary On
Versions: 1 2 3 4 5 6 7 8 9 10 11 12 13 14 15 16 17 18 19 20 21 22 23 24 25 26 27 28 29 30 31
000
FTUS41 KBOX 272325
TAFORH
TAF
KORH 272325Z 2800/2824 33014G28KT 2SM -SHSN OVC035
     FM280200 33014G24KT 4SM -SHSN OVC035
     FM280700 33011G19KT P6SM OVC035
     FM281800 32009KT P6SM BKN045
     FM282000 32008KT P6SM SCT150=

USA.gov is the U.S. government's official web portal to all federal, state and local government web resources and services.